Observations
| Time | Sensor | AQI | SAQ | Temp °C | Hum % | Pres Pa | CO μg/m³ | H₂S μg/m³ | NO μg/m³ | NO₂ μg/m³ | O₃ μg/m³ | SO₂ μg/m³ | CO₂e PPM | VOC PPM | PM1 μg/m³ | PM2.5 μg/m³ | PM4 μg/m³ | PM10 μg/m³ | TPS µm |
|---|---|---|---|---|---|---|---|---|---|---|---|---|---|---|---|---|---|---|---|
| Thursday 13 August 2026 | |||||||||||||||||||
| 02:18 | Trim Patrick St | 2 | 20.6 | 69 | 38,252 | 0 | 16.29 | 1.07 | 41.48 | 32.7 | 5.68 | 8 | 12.43 | 13.67 | |||||
| 02:17 | Trim Patrick St | 2 | 20.6 | 71 | 38,182 | 0 | 14.36 | 1.06 | 35.84 | 35.45 | 5.61 | 7.14 | 10.87 | 11.96 | |||||
| 02:16 | Trim Patrick St | 2 | 20.6 | 70 | 38,089 | 0 | 12.02 | 1.06 | 30.39 | 37.87 | 4.94 | 8 | 10.9 | 11.99 | |||||
| 02:15 | Trim Market St | 3 | 21.3 | 66 | 57,058 | 0 | 0.35 | 1.08 | 24.08 | 55.83 | 0 | 3.56 | 5.23 | 7.53 | |||||
| 02:15 | Trim Patrick St | 2 | 20.6 | 70 | 37,965 | 0 | 11.94 | 1.05 | 20.89 | 52.07 | 6.21 | 6.29 | 10.16 | 11.18 | |||||
| 02:14 | Trim Market St | 3 | 21.3 | 66 | 57,082 | 0 | 0 | 1.08 | 23.24 | 55.67 | 0 | 2.85 | 4.74 | 7.53 | |||||
| 02:14 | Trim Patrick St | 2 | 20.6 | 70 | 37,800 | 0 | 12.49 | 1.04 | 32.52 | 37.03 | 5.34 | 6.29 | 10.18 | 11.2 | |||||
| 02:13 | Trim Patrick St | 2 | 20.6 | 70 | 37,579 | 0 | 12.34 | 1.05 | 26.15 | 45.08 | 5.73 | 5.43 | 10.2 | 11.22 | |||||
| 02:12 | Trim Market St | 3 | 21.3 | 65 | 57,134 | 0 | 0 | 1.09 | 19.71 | 54.78 | 0 | 3.56 | 5.73 | 8.84 | |||||
| 02:11 | Trim Patrick St | 2 | 20.6 | 70 | 36,894 | 0 | 11.84 | 1.07 | 20.87 | 49.58 | 5.96 | 6.29 | 10.21 | 11.23 | |||||
| 02:09 | Trim Patrick St | 2 | 20.6 | 69 | 35,675 | 0 | 16 | 1.07 | 41.28 | 33.65 | 5.39 | 6.29 | 11.72 | 12.89 | |||||
| 02:07 | Trim Patrick St | 2 | 20.6 | 67 | 33,510 | 0 | 17.79 | 1.11 | 57.78 | 25.02 | 5.08 | 6.29 | 10.4 | 11.44 | |||||
| 02:06 | Trim Market St | 3 | 21.3 | 65 | 57,332 | 0 | 0.19 | 1.1 | 23.56 | 55.51 | 0 | 4.28 | 5.27 | 7.53 | |||||
| 02:06 | Trim Patrick St | 2 | 20.6 | 69 | 31,859 | 0 | 12.2 | 1.08 | 20.01 | 50.92 | 5.6 | 5.43 | 10.98 | 12.07 | |||||
| 02:03 | Trim Patrick St | 2 | 20.6 | 69 | 26,726 | 0 | 13.73 | 1.1 | 23.72 | 49.17 | 5.8 | 4.57 | 9.58 | 10.53 | |||||
| 02:02 | Trim Market St | 3 | 21.3 | 64 | 57,419 | 0 | 0 | 1.11 | 21.11 | 58.36 | 0 | 2.85 | 4.31 | 7.53 | |||||
| 02:02 | Trim Patrick St | 2 | 20.6 | 69 | 22,815 | 0 | 12.92 | 1.09 | 42.15 | 29.51 | 4.36 | 6.29 | 10.29 | 11.32 | |||||
| 02:01 | Trim Market St | 3 | 21.3 | 64 | 57,443 | 0 | 0 | 1.11 | 24.6 | 55.78 | 0 | 2.85 | 4.81 | 7.53 | |||||
| 02:01 | Trim Patrick St | 2 | 20.6 | 69 | 17,598 | 0 | 11.68 | 1.07 | 24.27 | 46.19 | 5.31 | 7.14 | 11.76 | 12.93 | |||||
| 02:00 | Trim Market St | 3 | 21.3 | 64 | 57,466 | 0 | 0 | 1.12 | 24.29 | 58.77 | 0 | 2.85 | 4.32 | 6.21 | |||||